sensor_id;sensor_type;location;lat;lon;timestamp;P1;durP1;ratioP1;P2;durP2;ratioP2
79363;SDS011;68832;53.112;17.980;2024-03-22T00:00:06;22.70;;;14.50;;
79363;SDS011;68832;53.112;17.980;2024-03-22T00:03:00;22.70;;;14.20;;
79363;SDS011;68832;53.112;17.980;2024-03-22T00:05:26;23.60;;;14.00;;
79363;SDS011;68832;53.112;17.980;2024-03-22T00:07:53;21.80;;;13.40;;
79363;SDS011;68832;53.112;17.980;2024-03-22T00:10:19;22.90;;;14.30;;
79363;SDS011;68832;53.112;17.980;2024-03-22T00:12:48;24.60;;;15.80;;
79363;SDS011;68832;53.112;17.980;2024-03-22T00:15:16;24.80;;;15.50;;
79363;SDS011;68832;53.112;17.980;2024-03-22T00:17:43;22.40;;;14.90;;
79363;SDS011;68832;53.112;17.980;2024-03-22T00:20:11;24.20;;;15.10;;
79363;SDS011;68832;53.112;17.980;2024-03-22T00:22:37;25.10;;;14.90;;
79363;SDS011;68832;53.112;17.980;2024-03-22T00:25:05;25.30;;;14.60;;
79363;SDS011;68832;53.112;17.980;2024-03-22T00:27:33;24.50;;;14.40;;
79363;SDS011;68832;53.112;17.980;2024-03-22T00:29:59;28.30;;;14.80;;
79363;SDS011;68832;53.112;17.980;2024-03-22T00:32:30;24.00;;;15.00;;
79363;SDS011;68832;53.112;17.980;2024-03-22T00:34:56;26.80;;;15.60;;
79363;SDS011;68832;53.112;17.980;2024-03-22T00:37:23;22.90;;;13.70;;
79363;SDS011;68832;53.112;17.980;2024-03-22T00:39:51;27.80;;;15.70;;
79363;SDS011;68832;53.112;17.980;2024-03-22T00:42:18;32.90;;;15.40;;
79363;SDS011;68832;53.112;17.980;2024-03-22T00:44:45;28.00;;;16.10;;
79363;SDS011;68832;53.112;17.980;2024-03-22T00:47:14;25.60;;;16.40;;
79363;SDS011;68832;53.112;17.980;2024-03-22T00:49:40;28.40;;;16.30;;
79363;SDS011;68832;53.112;17.980;2024-03-22T00:52:21;27.60;;;16.40;;
79363;SDS011;68832;53.112;17.980;2024-03-22T00:54:48;29.00;;;16.50;;
79363;SDS011;68832;53.112;17.980;2024-03-22T00:57:15;31.00;;;18.70;;
79363;SDS011;68832;53.112;17.980;2024-03-22T00:59:42;25.40;;;15.60;;
79363;SDS011;68832;53.112;17.980;2024-03-22T01:02:12;27.20;;;14.60;;
79363;SDS011;68832;53.112;17.980;2024-03-22T01:04:39;30.90;;;18.90;;
79363;SDS011;68832;53.112;17.980;2024-03-22T01:07:06;29.40;;;16.90;;
79363;SDS011;68832;53.112;17.980;2024-03-22T01:09:33;30.50;;;16.70;;
79363;SDS011;68832;53.112;17.980;2024-03-22T01:12:00;35.60;;;19.20;;
79363;SDS011;68832;53.112;17.980;2024-03-22T01:14:26;32.80;;;20.40;;
79363;SDS011;68832;53.112;17.980;2024-03-22T01:16:53;31.80;;;18.40;;
79363;SDS011;68832;53.112;17.980;2024-03-22T01:19:21;32.80;;;19.40;;
79363;SDS011;68832;53.112;17.980;2024-03-22T01:24:17;37.20;;;16.90;;
79363;SDS011;68832;53.112;17.980;2024-03-22T01:26:46;31.90;;;15.70;;
79363;SDS011;68832;53.112;17.980;2024-03-22T01:29:13;37.30;;;19.80;;
79363;SDS011;68832;53.112;17.980;2024-03-22T01:31:40;37.10;;;19.60;;
79363;SDS011;68832;53.112;17.980;2024-03-22T01:34:07;37.10;;;18.30;;
79363;SDS011;68832;53.112;17.980;2024-03-22T01:36:40;38.40;;;20.10;;
79363;SDS011;68832;53.112;17.980;2024-03-22T01:39:07;36.50;;;17.90;;
79363;SDS011;68832;53.112;17.980;2024-03-22T01:41:33;40.50;;;19.20;;
79363;SDS011;68832;53.112;17.980;2024-03-22T01:44:01;41.70;;;23.70;;
79363;SDS011;68832;53.112;17.980;2024-03-22T01:46:28;44.10;;;21.70;;
79363;SDS011;68832;53.112;17.980;2024-03-22T01:48:54;42.10;;;22.20;;
79363;SDS011;68832;53.112;17.980;2024-03-22T01:51:21;48.50;;;21.90;;
79363;SDS011;68832;53.112;17.980;2024-03-22T01:53:47;48.30;;;23.20;;
79363;SDS011;68832;53.112;17.980;2024-03-22T01:56:14;46.80;;;22.90;;
79363;SDS011;68832;53.112;17.980;2024-03-22T01:58:40;48.40;;;23.30;;
79363;SDS011;68832;53.112;17.980;2024-03-22T02:01:08;49.90;;;23.60;;
79363;SDS011;68832;53.112;17.980;2024-03-22T02:03:35;53.20;;;24.50;;
79363;SDS011;68832;53.112;17.980;2024-03-22T02:06:01;45.70;;;21.10;;
79363;SDS011;68832;53.112;17.980;2024-03-22T02:08:29;51.00;;;23.20;;
79363;SDS011;68832;53.112;17.980;2024-03-22T02:10:56;43.20;;;21.70;;
79363;SDS011;68832;53.112;17.980;2024-03-22T02:13:23;42.40;;;21.90;;
79363;SDS011;68832;53.112;17.980;2024-03-22T02:15:49;50.90;;;24.00;;
79363;SDS011;68832;53.112;17.980;2024-03-22T02:18:16;44.00;;;20.40;;
79363;SDS011;68832;53.112;17.980;2024-03-22T02:20:42;37.40;;;20.00;;
79363;SDS011;68832;53.112;17.980;2024-03-22T02:23:09;43.90;;;22.10;;
79363;SDS011;68832;53.112;17.980;2024-03-22T02:25:36;42.80;;;20.90;;
79363;SDS011;68832;53.112;17.980;2024-03-22T02:28:05;40.00;;;20.70;;
79363;SDS011;68832;53.112;17.980;2024-03-22T02:30:31;40.60;;;20.10;;
79363;SDS011;68832;53.112;17.980;2024-03-22T02:32:58;42.90;;;22.80;;
79363;SDS011;68832;53.112;17.980;2024-03-22T02:35:26;37.90;;;19.30;;
79363;SDS011;68832;53.112;17.980;2024-03-22T02:37:54;37.20;;;19.70;;
79363;SDS011;68832;53.112;17.980;2024-03-22T02:40:24;42.90;;;21.40;;
79363;SDS011;68832;53.112;17.980;2024-03-22T02:42:51;41.90;;;21.40;;
79363;SDS011;68832;53.112;17.980;2024-03-22T02:45:19;39.00;;;19.70;;
79363;SDS011;68832;53.112;17.980;2024-03-22T02:47:46;39.00;;;20.80;;
79363;SDS011;68832;53.112;17.980;2024-03-22T02:50:13;39.00;;;19.50;;
79363;SDS011;68832;53.112;17.980;2024-03-22T02:52:41;50.10;;;24.70;;
79363;SDS011;68832;53.112;17.980;2024-03-22T02:55:08;47.10;;;22.60;;
79363;SDS011;68832;53.112;17.980;2024-03-22T02:57:44;52.60;;;26.20;;
79363;SDS011;68832;53.112;17.980;2024-03-22T03:00:10;63.10;;;27.70;;
79363;SDS011;68832;53.112;17.980;2024-03-22T03:02:37;57.80;;;26.10;;
79363;SDS011;68832;53.112;17.980;2024-03-22T03:05:04;58.90;;;26.50;;
79363;SDS011;68832;53.112;17.980;2024-03-22T03:07:32;69.00;;;29.10;;
79363;SDS011;68832;53.112;17.980;2024-03-22T03:09:59;65.10;;;30.70;;
79363;SDS011;68832;53.112;17.980;2024-03-22T03:12:26;60.60;;;27.50;;
79363;SDS011;68832;53.112;17.980;2024-03-22T03:14:52;58.10;;;26.90;;
79363;SDS011;68832;53.112;17.980;2024-03-22T03:17:20;61.00;;;28.60;;
79363;SDS011;68832;53.112;17.980;2024-03-22T03:19:47;59.50;;;27.30;;
79363;SDS011;68832;53.112;17.980;2024-03-22T03:22:14;55.60;;;25.80;;
79363;SDS011;68832;53.112;17.980;2024-03-22T03:24:40;59.70;;;26.40;;
79363;SDS011;68832;53.112;17.980;2024-03-22T03:27:09;54.10;;;24.90;;
79363;SDS011;68832;53.112;17.980;2024-03-22T03:29:36;58.60;;;26.80;;
79363;SDS011;68832;53.112;17.980;2024-03-22T03:32:12;47.60;;;24.50;;
79363;SDS011;68832;53.112;17.980;2024-03-22T03:34:39;46.50;;;21.50;;
79363;SDS011;68832;53.112;17.980;2024-03-22T03:39:34;44.80;;;21.80;;
79363;SDS011;68832;53.112;17.980;2024-03-22T03:42:01;53.20;;;22.10;;
79363;SDS011;68832;53.112;17.980;2024-03-22T03:44:28;44.00;;;21.90;;
79363;SDS011;68832;53.112;17.980;2024-03-22T03:46:54;43.70;;;22.20;;
79363;SDS011;68832;53.112;17.980;2024-03-22T03:49:21;48.50;;;23.00;;
79363;SDS011;68832;53.112;17.980;2024-03-22T03:51:50;44.70;;;22.90;;
79363;SDS011;68832;53.112;17.980;2024-03-22T03:54:16;39.20;;;19.80;;
79363;SDS011;68832;53.112;17.980;2024-03-22T03:56:43;46.90;;;21.70;;
79363;SDS011;68832;53.112;17.980;2024-03-22T03:59:09;44.00;;;21.80;;
79363;SDS011;68832;53.112;17.980;2024-03-22T04:01:36;40.50;;;20.90;;
79363;SDS011;68832;53.112;17.980;2024-03-22T04:04:03;37.50;;;19.90;;
79363;SDS011;68832;53.112;17.980;2024-03-22T04:06:29;39.50;;;20.40;;
79363;SDS011;68832;53.112;17.980;2024-03-22T04:08:58;40.10;;;21.60;;
79363;SDS011;68832;53.112;17.980;2024-03-22T04:11:27;36.90;;;19.50;;
79363;SDS011;68832;53.112;17.980;2024-03-22T04:13:54;41.50;;;19.40;;
79363;SDS011;68832;53.112;17.980;2024-03-22T04:16:21;41.30;;;19.00;;
79363;SDS011;68832;53.112;17.980;2024-03-22T04:18:48;33.60;;;18.60;;
79363;SDS011;68832;53.112;17.980;2024-03-22T04:21:16;36.10;;;18.90;;
79363;SDS011;68832;53.112;17.980;2024-03-22T04:23:43;33.20;;;18.90;;
79363;SDS011;68832;53.112;17.980;2024-03-22T04:26:09;31.10;;;15.60;;
79363;SDS011;68832;53.112;17.980;2024-03-22T04:28:37;33.80;;;18.10;;
79363;SDS011;68832;53.112;17.980;2024-03-22T04:31:07;34.90;;;17.40;;
79363;SDS011;68832;53.112;17.980;2024-03-22T04:33:35;37.40;;;18.10;;
79363;SDS011;68832;53.112;17.980;2024-03-22T04:36:03;35.90;;;19.60;;
79363;SDS011;68832;53.112;17.980;2024-03-22T04:38:31;38.40;;;21.70;;
79363;SDS011;68832;53.112;17.980;2024-03-22T04:40:57;35.00;;;18.40;;
79363;SDS011;68832;53.112;17.980;2024-03-22T04:43:25;35.70;;;19.20;;
79363;SDS011;68832;53.112;17.980;2024-03-22T04:45:54;34.80;;;18.90;;
79363;SDS011;68832;53.112;17.980;2024-03-22T04:48:23;35.60;;;17.80;;
79363;SDS011;68832;53.112;17.980;2024-03-22T04:50:51;35.80;;;18.90;;
79363;SDS011;68832;53.112;17.980;2024-03-22T04:53:18;34.70;;;17.10;;
79363;SDS011;68832;53.112;17.980;2024-03-22T04:55:47;35.70;;;17.90;;
79363;SDS011;68832;53.112;17.980;2024-03-22T04:58:17;35.10;;;19.00;;
79363;SDS011;68832;53.112;17.980;2024-03-22T05:00:45;37.90;;;20.30;;
79363;SDS011;68832;53.112;17.980;2024-03-22T05:03:28;33.80;;;15.50;;
79363;SDS011;68832;53.112;17.980;2024-03-22T05:05:55;27.60;;;15.40;;
79363;SDS011;68832;53.112;17.980;2024-03-22T05:08:24;26.10;;;16.30;;
79363;SDS011;68832;53.112;17.980;2024-03-22T05:10:50;27.80;;;14.70;;
79363;SDS011;68832;53.112;17.980;2024-03-22T05:13:17;26.50;;;14.30;;
79363;SDS011;68832;53.112;17.980;2024-03-22T05:15:43;41.70;;;22.90;;
79363;SDS011;68832;53.112;17.980;2024-03-22T05:18:12;68.30;;;31.80;;
79363;SDS011;68832;53.112;17.980;2024-03-22T05:20:39;26.10;;;12.70;;
79363;SDS011;68832;53.112;17.980;2024-03-22T05:23:05;26.50;;;13.90;;
79363;SDS011;68832;53.112;17.980;2024-03-22T05:25:34;26.60;;;14.30;;
79363;SDS011;68832;53.112;17.980;2024-03-22T05:28:01;30.10;;;18.00;;
79363;SDS011;68832;53.112;17.980;2024-03-22T05:30:29;25.30;;;13.30;;
79363;SDS011;68832;53.112;17.980;2024-03-22T05:32:56;24.10;;;14.00;;
79363;SDS011;68832;53.112;17.980;2024-03-22T05:35:22;24.20;;;12.70;;
79363;SDS011;68832;53.112;17.980;2024-03-22T05:37:49;23.10;;;12.90;;
79363;SDS011;68832;53.112;17.980;2024-03-22T05:40:16;23.00;;;11.60;;
79363;SDS011;68832;53.112;17.980;2024-03-22T05:42:42;23.40;;;12.90;;
79363;SDS011;68832;53.112;17.980;2024-03-22T05:45:09;23.70;;;11.90;;
79363;SDS011;68832;53.112;17.980;2024-03-22T05:47:35;25.30;;;12.40;;
79363;SDS011;68832;53.112;17.980;2024-03-22T05:50:06;51.00;;;30.50;;
79363;SDS011;68832;53.112;17.980;2024-03-22T05:52:34;37.60;;;17.60;;
79363;SDS011;68832;53.112;17.980;2024-03-22T05:55:01;22.40;;;11.20;;
79363;SDS011;68832;53.112;17.980;2024-03-22T05:57:27;18.10;;;10.90;;
79363;SDS011;68832;53.112;17.980;2024-03-22T05:59:54;25.70;;;12.50;;
79363;SDS011;68832;53.112;17.980;2024-03-22T06:02:21;23.10;;;12.50;;
79363;SDS011;68832;53.112;17.980;2024-03-22T06:04:49;23.90;;;13.70;;
79363;SDS011;68832;53.112;17.980;2024-03-22T06:07:17;27.50;;;11.50;;
79363;SDS011;68832;53.112;17.980;2024-03-22T06:09:44;21.70;;;11.30;;
79363;SDS011;68832;53.112;17.980;2024-03-22T06:12:13;23.90;;;12.30;;
79363;SDS011;68832;53.112;17.980;2024-03-22T06:14:46;25.50;;;12.60;;
79363;SDS011;68832;53.112;17.980;2024-03-22T06:17:20;25.90;;;12.80;;
79363;SDS011;68832;53.112;17.980;2024-03-22T06:19:54;26.40;;;11.80;;
79363;SDS011;68832;53.112;17.980;2024-03-22T06:22:22;24.20;;;11.70;;
79363;SDS011;68832;53.112;17.980;2024-03-22T06:24:49;24.00;;;12.80;;
79363;SDS011;68832;53.112;17.980;2024-03-22T06:27:15;26.20;;;12.50;;
79363;SDS011;68832;53.112;17.980;2024-03-22T06:29:42;22.80;;;12.30;;
79363;SDS011;68832;53.112;17.980;2024-03-22T06:32:08;22.30;;;12.90;;
79363;SDS011;68832;53.112;17.980;2024-03-22T06:34:35;23.00;;;12.80;;
79363;SDS011;68832;53.112;17.980;2024-03-22T06:37:03;67.50;;;43.50;;
79363;SDS011;68832;53.112;17.980;2024-03-22T06:39:32;22.40;;;11.80;;
79363;SDS011;68832;53.112;17.980;2024-03-22T06:41:59;24.50;;;11.80;;
79363;SDS011;68832;53.112;17.980;2024-03-22T06:44:26;24.50;;;11.50;;
79363;SDS011;68832;53.112;17.980;2024-03-22T06:46:56;21.60;;;12.70;;
79363;SDS011;68832;53.112;17.980;2024-03-22T06:49:23;25.40;;;12.10;;
79363;SDS011;68832;53.112;17.980;2024-03-22T06:51:50;25.40;;;10.80;;
79363;SDS011;68832;53.112;17.980;2024-03-22T06:54:16;27.50;;;13.40;;
79363;SDS011;68832;53.112;17.980;2024-03-22T06:56:43;28.90;;;14.10;;
79363;SDS011;68832;53.112;17.980;2024-03-22T06:59:11;22.10;;;12.60;;
79363;SDS011;68832;53.112;17.980;2024-03-22T07:01:38;22.30;;;11.70;;
79363;SDS011;68832;53.112;17.980;2024-03-22T07:04:04;22.10;;;12.80;;
79363;SDS011;68832;53.112;17.980;2024-03-22T07:06:31;25.80;;;13.10;;
79363;SDS011;68832;53.112;17.980;2024-03-22T07:08:58;21.30;;;11.80;;
79363;SDS011;68832;53.112;17.980;2024-03-22T07:11:24;18.90;;;11.00;;
79363;SDS011;68832;53.112;17.980;2024-03-22T07:13:51;20.10;;;11.70;;
79363;SDS011;68832;53.112;17.980;2024-03-22T07:16:19;33.00;;;11.80;;
79363;SDS011;68832;53.112;17.980;2024-03-22T07:18:45;23.40;;;12.30;;
79363;SDS011;68832;53.112;17.980;2024-03-22T07:21:12;22.30;;;11.30;;
79363;SDS011;68832;53.112;17.980;2024-03-22T07:23:38;22.60;;;11.30;;
79363;SDS011;68832;53.112;17.980;2024-03-22T07:26:05;22.00;;;10.80;;
79363;SDS011;68832;53.112;17.980;2024-03-22T07:28:34;25.30;;;11.70;;
79363;SDS011;68832;53.112;17.980;2024-03-22T07:31:03;22.20;;;10.60;;
79363;SDS011;68832;53.112;17.980;2024-03-22T07:33:31;20.40;;;10.40;;
79363;SDS011;68832;53.112;17.980;2024-03-22T07:36:02;19.70;;;10.40;;
79363;SDS011;68832;53.112;17.980;2024-03-22T07:38:29;59.60;;;27.70;;
79363;SDS011;68832;53.112;17.980;2024-03-22T07:40:59;23.40;;;12.50;;
79363;SDS011;68832;53.112;17.980;2024-03-22T07:43:30;19.40;;;10.70;;
79363;SDS011;68832;53.112;17.980;2024-03-22T07:45:57;22.30;;;11.80;;
79363;SDS011;68832;53.112;17.980;2024-03-22T07:48:27;20.60;;;10.70;;
79363;SDS011;68832;53.112;17.980;2024-03-22T07:50:58;22.10;;;11.10;;
79363;SDS011;68832;53.112;17.980;2024-03-22T07:53:27;18.50;;;9.40;;
79363;SDS011;68832;53.112;17.980;2024-03-22T07:55:55;21.90;;;12.80;;
79363;SDS011;68832;53.112;17.980;2024-03-22T07:58:22;20.20;;;11.00;;
79363;SDS011;68832;53.112;17.980;2024-03-22T08:00:48;20.50;;;10.70;;
79363;SDS011;68832;53.112;17.980;2024-03-22T08:03:22;21.10;;;11.90;;
79363;SDS011;68832;53.112;17.980;2024-03-22T08:05:50;20.20;;;11.20;;
79363;SDS011;68832;53.112;17.980;2024-03-22T08:08:18;17.90;;;10.10;;
79363;SDS011;68832;53.112;17.980;2024-03-22T08:10:49;19.60;;;11.70;;
79363;SDS011;68832;53.112;17.980;2024-03-22T08:13:17;21.90;;;11.30;;
79363;SDS011;68832;53.112;17.980;2024-03-22T08:15:47;20.40;;;11.30;;
79363;SDS011;68832;53.112;17.980;2024-03-22T08:18:15;25.70;;;12.80;;
79363;SDS011;68832;53.112;17.980;2024-03-22T08:20:42;21.60;;;10.70;;
79363;SDS011;68832;53.112;17.980;2024-03-22T08:23:09;23.70;;;12.40;;
79363;SDS011;68832;53.112;17.980;2024-03-22T08:25:35;64.30;;;36.10;;
79363;SDS011;68832;53.112;17.980;2024-03-22T08:28:07;20.30;;;12.90;;
79363;SDS011;68832;53.112;17.980;2024-03-22T08:30:36;20.80;;;12.70;;
79363;SDS011;68832;53.112;17.980;2024-03-22T08:33:06;20.50;;;12.00;;
79363;SDS011;68832;53.112;17.980;2024-03-22T08:35:33;21.40;;;13.30;;
79363;SDS011;68832;53.112;17.980;2024-03-22T08:37:59;24.90;;;13.90;;
79363;SDS011;68832;53.112;17.980;2024-03-22T08:42:54;22.30;;;12.60;;
79363;SDS011;68832;53.112;17.980;2024-03-22T08:45:21;22.30;;;12.60;;
79363;SDS011;68832;53.112;17.980;2024-03-22T08:47:48;22.00;;;12.60;;
79363;SDS011;68832;53.112;17.980;2024-03-22T08:50:14;28.20;;;14.10;;
79363;SDS011;68832;53.112;17.980;2024-03-22T08:52:41;23.20;;;13.00;;
79363;SDS011;68832;53.112;17.980;2024-03-22T08:55:08;21.50;;;12.80;;
79363;SDS011;68832;53.112;17.980;2024-03-22T08:57:35;22.10;;;12.30;;
79363;SDS011;68832;53.112;17.980;2024-03-22T09:00:01;20.80;;;12.30;;
79363;SDS011;68832;53.112;17.980;2024-03-22T09:02:28;19.00;;;10.80;;
79363;SDS011;68832;53.112;17.980;2024-03-22T09:04:55;31.90;;;18.60;;
79363;SDS011;68832;53.112;17.980;2024-03-22T09:07:22;28.30;;;16.80;;
79363;SDS011;68832;53.112;17.980;2024-03-22T09:09:51;20.40;;;11.70;;
79363;SDS011;68832;53.112;17.980;2024-03-22T09:12:19;19.20;;;12.20;;
79363;SDS011;68832;53.112;17.980;2024-03-22T09:14:46;19.60;;;12.80;;
79363;SDS011;68832;53.112;17.980;2024-03-22T09:17:12;30.60;;;19.50;;
79363;SDS011;68832;53.112;17.980;2024-03-22T09:19:39;20.80;;;13.20;;
79363;SDS011;68832;53.112;17.980;2024-03-22T09:22:05;21.60;;;11.90;;
79363;SDS011;68832;53.112;17.980;2024-03-22T09:24:32;23.10;;;14.70;;
79363;SDS011;68832;53.112;17.980;2024-03-22T09:26:58;19.80;;;11.10;;
79363;SDS011;68832;53.112;17.980;2024-03-22T09:29:25;20.20;;;11.40;;
79363;SDS011;68832;53.112;17.980;2024-03-22T09:31:52;22.00;;;11.70;;
79363;SDS011;68832;53.112;17.980;2024-03-22T09:34:19;24.60;;;13.10;;
79363;SDS011;68832;53.112;17.980;2024-03-22T09:36:47;23.90;;;13.70;;
79363;SDS011;68832;53.112;17.980;2024-03-22T09:39:13;25.20;;;13.40;;
79363;SDS011;68832;53.112;17.980;2024-03-22T09:41:42;25.90;;;13.80;;
79363;SDS011;68832;53.112;17.980;2024-03-22T09:44:13;22.60;;;14.00;;
79363;SDS011;68832;53.112;17.980;2024-03-22T09:46:46;22.90;;;13.50;;
79363;SDS011;68832;53.112;17.980;2024-03-22T09:49:13;24.10;;;14.10;;
79363;SDS011;68832;53.112;17.980;2024-03-22T09:51:39;23.40;;;13.60;;
79363;SDS011;68832;53.112;17.980;2024-03-22T09:54:08;22.90;;;12.70;;
79363;SDS011;68832;53.112;17.980;2024-03-22T09:56:38;22.50;;;12.90;;
79363;SDS011;68832;53.112;17.980;2024-03-22T09:59:05;23.90;;;13.60;;
79363;SDS011;68832;53.112;17.980;2024-03-22T10:01:34;25.70;;;15.30;;
79363;SDS011;68832;53.112;17.980;2024-03-22T10:04:02;19.10;;;11.60;;
79363;SDS011;68832;53.112;17.980;2024-03-22T10:06:29;20.60;;;12.70;;
79363;SDS011;68832;53.112;17.980;2024-03-22T10:08:59;18.20;;;11.10;;
79363;SDS011;68832;53.112;17.980;2024-03-22T10:11:27;18.80;;;12.30;;
79363;SDS011;68832;53.112;17.980;2024-03-22T10:13:55;21.10;;;13.10;;
79363;SDS011;68832;53.112;17.980;2024-03-22T10:16:25;17.70;;;11.80;;
79363;SDS011;68832;53.112;17.980;2024-03-22T10:18:54;20.90;;;13.00;;
79363;SDS011;68832;53.112;17.980;2024-03-22T10:21:22;23.00;;;12.90;;
79363;SDS011;68832;53.112;17.980;2024-03-22T10:23:49;24.90;;;17.10;;
79363;SDS011;68832;53.112;17.980;2024-03-22T10:28:44;19.90;;;11.90;;
79363;SDS011;68832;53.112;17.980;2024-03-22T10:31:12;20.80;;;12.40;;
79363;SDS011;68832;53.112;17.980;2024-03-22T10:33:42;21.50;;;13.80;;
79363;SDS011;68832;53.112;17.980;2024-03-22T10:36:10;27.10;;;13.10;;
79363;SDS011;68832;53.112;17.980;2024-03-22T10:38:38;25.80;;;14.20;;
79363;SDS011;68832;53.112;17.980;2024-03-22T10:41:07;20.70;;;13.10;;
79363;SDS011;68832;53.112;17.980;2024-03-22T10:43:35;22.80;;;14.20;;
79363;SDS011;68832;53.112;17.980;2024-03-22T10:46:02;26.40;;;13.70;;
79363;SDS011;68832;53.112;17.980;2024-03-22T10:48:32;46.90;;;19.20;;
79363;SDS011;68832;53.112;17.980;2024-03-22T10:51:00;36.70;;;15.00;;
79363;SDS011;68832;53.112;17.980;2024-03-22T10:55:58;31.30;;;15.80;;
79363;SDS011;68832;53.112;17.980;2024-03-22T10:58:26;39.60;;;15.80;;
79363;SDS011;68832;53.112;17.980;2024-03-22T11:00:56;28.30;;;13.40;;
79363;SDS011;68832;53.112;17.980;2024-03-22T11:03:24;27.90;;;13.70;;
79363;SDS011;68832;53.112;17.980;2024-03-22T11:05:57;23.60;;;13.10;;
79363;SDS011;68832;53.112;17.980;2024-03-22T11:08:24;21.90;;;12.40;;
79363;SDS011;68832;53.112;17.980;2024-03-22T11:10:51;20.60;;;12.40;;
79363;SDS011;68832;53.112;17.980;2024-03-22T11:13:18;18.60;;;12.00;;
79363;SDS011;68832;53.112;17.980;2024-03-22T11:15:48;22.10;;;11.60;;
79363;SDS011;68832;53.112;17.980;2024-03-22T11:18:16;19.60;;;10.50;;
79363;SDS011;68832;53.112;17.980;2024-03-22T11:20:46;23.40;;;12.70;;
79363;SDS011;68832;53.112;17.980;2024-03-22T11:23:13;24.30;;;13.70;;
79363;SDS011;68832;53.112;17.980;2024-03-22T11:25:41;21.50;;;12.60;;
79363;SDS011;68832;53.112;17.980;2024-03-22T11:28:07;21.40;;;12.60;;
79363;SDS011;68832;53.112;17.980;2024-03-22T11:30:34;21.50;;;12.50;;
79363;SDS011;68832;53.112;17.980;2024-03-22T11:33:01;20.70;;;12.10;;
79363;SDS011;68832;53.112;17.980;2024-03-22T11:35:30;24.10;;;12.40;;
79363;SDS011;68832;53.112;17.980;2024-03-22T11:37:58;23.90;;;13.40;;
79363;SDS011;68832;53.112;17.980;2024-03-22T11:40:27;21.80;;;13.30;;
79363;SDS011;68832;53.112;17.980;2024-03-22T11:42:56;20.70;;;12.70;;
79363;SDS011;68832;53.112;17.980;2024-03-22T11:45:24;21.30;;;12.40;;
79363;SDS011;68832;53.112;17.980;2024-03-22T11:47:55;21.40;;;12.30;;
79363;SDS011;68832;53.112;17.980;2024-03-22T11:50:22;27.70;;;16.40;;
79363;SDS011;68832;53.112;17.980;2024-03-22T11:52:55;21.20;;;12.20;;
79363;SDS011;68832;53.112;17.980;2024-03-22T11:55:27;25.40;;;14.40;;
79363;SDS011;68832;53.112;17.980;2024-03-22T11:57:56;20.80;;;12.40;;
79363;SDS011;68832;53.112;17.980;2024-03-22T12:00:23;23.50;;;15.50;;
79363;SDS011;68832;53.112;17.980;2024-03-22T12:02:52;27.00;;;15.30;;
79363;SDS011;68832;53.112;17.980;2024-03-22T12:05:20;25.90;;;14.70;;
79363;SDS011;68832;53.112;17.980;2024-03-22T12:07:50;26.10;;;13.90;;
79363;SDS011;68832;53.112;17.980;2024-03-22T12:10:19;25.20;;;13.50;;
79363;SDS011;68832;53.112;17.980;2024-03-22T12:12:48;23.60;;;13.50;;
79363;SDS011;68832;53.112;17.980;2024-03-22T12:15:19;25.40;;;12.40;;
79363;SDS011;68832;53.112;17.980;2024-03-22T12:17:46;26.40;;;13.40;;
79363;SDS011;68832;53.112;17.980;2024-03-22T12:20:14;21.30;;;12.70;;
79363;SDS011;68832;53.112;17.980;2024-03-22T12:22:43;30.70;;;18.80;;
79363;SDS011;68832;53.112;17.980;2024-03-22T12:25:12;22.10;;;12.10;;
79363;SDS011;68832;53.112;17.980;2024-03-22T12:27:41;22.40;;;12.90;;
79363;SDS011;68832;53.112;17.980;2024-03-22T12:30:09;23.40;;;11.60;;
79363;SDS011;68832;53.112;17.980;2024-03-22T12:32:43;22.50;;;13.30;;
79363;SDS011;68832;53.112;17.980;2024-03-22T12:35:18;24.20;;;14.10;;
79363;SDS011;68832;53.112;17.980;2024-03-22T12:37:47;25.90;;;13.90;;
79363;SDS011;68832;53.112;17.980;2024-03-22T12:40:14;22.10;;;12.90;;
79363;SDS011;68832;53.112;17.980;2024-03-22T12:42:48;25.60;;;13.20;;
79363;SDS011;68832;53.112;17.980;2024-03-22T12:45:19;26.80;;;14.50;;
79363;SDS011;68832;53.112;17.980;2024-03-22T12:47:49;43.80;;;25.00;;
79363;SDS011;68832;53.112;17.980;2024-03-22T12:50:17;30.80;;;19.90;;
79363;SDS011;68832;53.112;17.980;2024-03-22T12:52:51;22.30;;;11.90;;
79363;SDS011;68832;53.112;17.980;2024-03-22T12:55:18;20.90;;;11.10;;
79363;SDS011;68832;53.112;17.980;2024-03-22T12:57:47;21.20;;;12.60;;
79363;SDS011;68832;53.112;17.980;2024-03-22T13:00:16;23.90;;;14.70;;
79363;SDS011;68832;53.112;17.980;2024-03-22T13:02:45;23.40;;;13.30;;
79363;SDS011;68832;53.112;17.980;2024-03-22T13:05:15;22.00;;;13.30;;
79363;SDS011;68832;53.112;17.980;2024-03-22T13:07:42;21.20;;;12.00;;
79363;SDS011;68832;53.112;17.980;2024-03-22T13:10:12;20.40;;;12.00;;
79363;SDS011;68832;53.112;17.980;2024-03-22T13:15:10;24.90;;;13.70;;
79363;SDS011;68832;53.112;17.980;2024-03-22T13:17:38;23.80;;;14.00;;
79363;SDS011;68832;53.112;17.980;2024-03-22T13:20:05;21.30;;;12.80;;
79363;SDS011;68832;53.112;17.980;2024-03-22T13:22:37;23.40;;;13.40;;
79363;SDS011;68832;53.112;17.980;2024-03-22T13:25:04;23.80;;;14.10;;
79363;SDS011;68832;53.112;17.980;2024-03-22T13:27:35;21.50;;;12.70;;
79363;SDS011;68832;53.112;17.980;2024-03-22T13:30:06;20.70;;;12.40;;
79363;SDS011;68832;53.112;17.980;2024-03-22T13:32:38;24.10;;;13.10;;
79363;SDS011;68832;53.112;17.980;2024-03-22T13:35:08;22.60;;;13.70;;
79363;SDS011;68832;53.112;17.980;2024-03-22T13:37:35;22.60;;;12.80;;
79363;SDS011;68832;53.112;17.980;2024-03-22T13:40:02;19.60;;;11.10;;
79363;SDS011;68832;53.112;17.980;2024-03-22T13:42:57;22.10;;;12.90;;
79363;SDS011;68832;53.112;17.980;2024-03-22T13:45:26;22.30;;;13.40;;
79363;SDS011;68832;53.112;17.980;2024-03-22T13:47:54;24.30;;;12.20;;
79363;SDS011;68832;53.112;17.980;2024-03-22T13:50:20;20.10;;;13.20;;
79363;SDS011;68832;53.112;17.980;2024-03-22T13:52:49;20.90;;;11.90;;
79363;SDS011;68832;53.112;17.980;2024-03-22T13:55:18;21.30;;;12.90;;
79363;SDS011;68832;53.112;17.980;2024-03-22T13:57:46;21.60;;;12.30;;
79363;SDS011;68832;53.112;17.980;2024-03-22T14:00:13;19.30;;;12.00;;
79363;SDS011;68832;53.112;17.980;2024-03-22T14:02:42;20.00;;;10.60;;
79363;SDS011;68832;53.112;17.980;2024-03-22T14:05:11;19.20;;;11.20;;
79363;SDS011;68832;53.112;17.980;2024-03-22T14:07:39;20.00;;;12.40;;
79363;SDS011;68832;53.112;17.980;2024-03-22T14:10:06;19.10;;;11.60;;
79363;SDS011;68832;53.112;17.980;2024-03-22T14:12:42;28.30;;;16.40;;
79363;SDS011;68832;53.112;17.980;2024-03-22T14:15:10;20.10;;;11.70;;
79363;SDS011;68832;53.112;17.980;2024-03-22T14:17:41;18.60;;;11.10;;
79363;SDS011;68832;53.112;17.980;2024-03-22T14:20:08;19.00;;;10.80;;
79363;SDS011;68832;53.112;17.980;2024-03-22T14:22:40;20.70;;;11.00;;
79363;SDS011;68832;53.112;17.980;2024-03-22T14:25:10;18.50;;;10.70;;
79363;SDS011;68832;53.112;17.980;2024-03-22T14:27:40;17.60;;;10.10;;